Time;durP1;ratioP1;P1;durP2;ratioP2;P2;SDS_P1;SDS_P2;PMS_P1;PMS_P2;Temp;Humidity;BMP_temperature;BMP_pressure;BME280_temperature;BME280_humidity;BME280_pressure;Samples;Min_cycle;Max_cycle;Signal;HPM_P1;HPM_P2
2022/03/07 00:01:35;;;;;;;;;67.00;54.00;;;;;3.30;55.55;102176.16;5032127;28;49811;-64
2022/03/07 00:04:02;;;;;;;;;61.67;49.67;;;;;2.91;55.14;102106.72;5032068;28;50222;-64
2022/03/07 00:06:27;;;;;;;;;59.33;51.00;;;;;3.31;55.60;102180.56;5032262;28;50033;-65
2022/03/07 00:08:53;;;;;;;;;63.67;51.67;;;;;3.31;54.79;102184.84;5031356;28;49957;-64
2022/03/07 00:11:19;;;;;;;;;77.00;55.67;;;;;3.31;55.02;102179.66;5031681;28;49830;-64
2022/03/07 00:13:45;;;;;;;;;64.33;53.00;;;;;3.18;55.07;102154.47;5036249;28;49875;-64
2022/03/07 00:16:11;;;;;;;;;69.00;51.33;;;;;3.29;55.35;102169.16;5032955;28;49878;-64
2022/03/07 00:18:36;;;;;;;;;61.25;49.50;;;;;3.21;55.69;102178.09;5040992;28;50061;-64
2022/03/07 00:21:06;;;;;;;;;63.00;53.00;;;;;3.23;55.58;102184.28;5036356;28;49793;-63
2022/03/07 00:23:32;;;;;;;;;63.67;50.67;;;;;3.25;54.99;102177.50;5034686;28;49954;-64
2022/03/07 00:25:57;;;;;;;;;66.00;50.00;;;;;3.24;55.03;102185.19;5039285;28;49940;-64
2022/03/07 00:28:23;;;;;;;;;70.00;56.33;;;;;3.27;54.91;102188.00;5035928;28;49911;-64
2022/03/07 00:30:48;;;;;;;;;69.67;54.67;;;;;3.23;54.98;102184.28;5034372;28;49729;-64
2022/03/07 00:33:18;;;;;;;;;64.33;54.33;;;;;3.18;55.08;102190.81;5033760;28;49893;-64
2022/03/07 00:35:43;;;;;;;;;57.00;47.75;;;;;3.21;54.71;102190.16;5036172;28;49606;-63
2022/03/07 00:38:09;;;;;;;;;68.00;53.25;;;;;3.21;55.00;102183.28;5037843;28;49858;-64
2022/03/07 00:40:34;;;;;;;;;68.25;52.00;;;;;3.17;55.64;102183.81;5034212;28;49843;-63
2022/03/07 00:43:00;;;;;;;;;64.00;50.00;;;;;2.68;55.66;102098.91;5033161;28;50095;-64
2022/03/07 00:45:25;;;;;;;;;65.00;53.00;;;;;3.09;55.55;102188.47;5037102;28;49838;-63
2022/03/07 00:47:51;;;;;;;;;65.67;50.33;;;;;3.06;55.35;102185.63;5031738;28;50292;-64
2022/03/07 00:50:16;;;;;;;;;67.67;51.33;;;;;2.99;55.94;102170.44;5032176;28;49760;-66
2022/03/07 00:52:41;;;;;;;;;63.50;51.25;;;;;3.06;55.41;102183.03;5033651;28;49842;-65
2022/03/07 00:55:08;;;;;;;;;61.75;47.50;;;;;3.05;55.84;102186.44;5031233;28;49741;-64
2022/03/07 00:57:34;;;;;;;;;62.75;49.50;;;;;2.85;55.21;102152.94;5037173;28;50594;-64
2022/03/07 00:59:59;;;;;;;;;64.00;49.75;;;;;2.76;54.84;102153.16;5036281;28;49788;-66
2022/03/07 01:02:25;;;;;;;;;61.75;49.25;;;;;2.88;56.04;102186.88;5044636;28;49806;-64
2022/03/07 01:04:50;;;;;;;;;63.00;49.25;;;;;2.84;56.12;102171.88;5031118;28;49596;-64
2022/03/07 01:07:16;;;;;;;;;64.50;50.75;;;;;2.94;55.64;102181.25;5030421;28;50369;-63
2022/03/07 01:09:41;;;;;;;;;63.33;49.67;;;;;2.96;55.04;102184.84;5030949;28;49893;-64
2022/03/07 01:12:07;;;;;;;;;64.33;49.67;;;;;2.67;55.92;102142.09;5031191;28;49712;-64
2022/03/07 01:14:33;;;;;;;;;61.00;48.00;;;;;2.83;55.63;102172.69;5024579;28;49695;-64
2022/03/07 01:16:58;;;;;;;;;58.00;48.25;;;;;2.87;55.54;102185.06;5030661;28;51046;-64
2022/03/07 01:19:23;;;;;;;;;70.33;53.67;;;;;2.87;55.16;102182.47;5012779;28;50013;-64
2022/03/07 01:21:49;;;;;;;;;66.25;49.00;;;;;2.36;55.99;102089.66;5030369;28;49730;-64
2022/03/07 01:24:14;;;;;;;;;60.25;49.75;;;;;2.74;56.31;102165.09;5030677;28;49931;-64
2022/03/07 01:26:39;;;;;;;;;60.00;47.00;;;;;2.81;55.86;102167.38;5033294;28;49933;-66
2022/03/07 01:29:05;;;;;;;;;65.50;50.25;;;;;2.69;55.69;102149.97;5030813;28;49796;-64
2022/03/07 01:31:31;;;;;;;;;60.25;48.50;;;;;2.76;55.29;102173.91;5030599;28;49855;-63
2022/03/07 01:33:56;;;;;;;;;63.00;50.67;;;;;2.74;55.89;102177.19;5035792;28;49813;-64
2022/03/07 01:36:22;;;;;;;;;55.25;46.25;;;;;2.44;55.30;102127.44;5036566;28;49843;-63
2022/03/07 01:38:48;;;;;;;;;61.75;48.50;;;;;2.66;56.25;102173.09;5031939;28;49942;-64
2022/03/07 01:41:14;;;;;;;;;61.25;49.00;;;;;2.51;55.60;102154.69;5030322;28;49833;-63
2022/03/07 01:43:39;;;;;;;;;54.50;46.75;;;;;2.44;56.00;102145.56;5030548;28;49659;-63
2022/03/07 01:46:05;;;;;;;;;61.00;49.75;;;;;2.57;56.31;102166.44;5032792;28;50315;-63
2022/03/07 01:48:31;;;;;;;;;56.75;44.00;;;;;2.38;56.05;102139.00;5032249;28;49804;-67
2022/03/07 01:50:56;;;;;;;;;51.50;46.25;;;;;2.57;56.19;102171.63;5032571;28;50069;-64
2022/03/07 01:53:22;;;;;;;;;51.50;41.50;;;;;2.52;55.77;102159.13;5030262;28;49955;-64
2022/03/07 01:55:48;;;;;;;;;62.25;50.00;;;;;2.55;56.41;102167.13;5030137;28;49986;-64
2022/03/07 01:58:13;;;;;;;;;56.00;46.50;;;;;2.57;56.01;102158.66;5033159;28;50272;-64
2022/03/07 02:00:39;;;;;;;;;55.75;46.75;;;;;2.37;56.15;102132.03;5030122;28;49674;-64
2022/03/07 02:03:05;;;;;;;;;66.00;51.75;;;;;2.35;55.69;102131.03;5033447;28;49801;-70
2022/03/07 02:05:34;;;;;;;;;52.75;46.25;;;;;2.46;56.31;102154.38;5028978;28;49890;-65
2022/03/07 02:07:59;;;;;;;;;57.00;48.50;;;;;2.48;56.30;102152.78;5032856;28;49955;-64
2022/03/07 02:10:28;;;;;;;;;62.00;47.00;;;;;2.47;56.06;102153.56;5030224;28;49659;-63
2022/03/07 02:12:54;;;;;;;;;57.50;50.00;;;;;2.41;56.13;102134.94;5033342;28;49786;-64
2022/03/07 02:15:19;;;;;;;;;53.25;47.25;;;;;2.46;55.82;102148.28;5030629;28;49987;-64
2022/03/07 02:17:45;;;;;;;;;69.75;50.75;;;;;2.41;56.00;102147.91;5042267;28;49776;-64
2022/03/07 02:20:12;;;;;;;;;56.25;43.75;;;;;2.38;56.23;102147.69;5029730;28;49689;-63
2022/03/07 02:22:37;;;;;;;;;62.25;50.00;;;;;2.38;56.40;102139.00;5029795;28;49748;-64
2022/03/07 02:25:03;;;;;;;;;55.25;47.25;;;;;2.29;56.64;102145.31;5029616;28;49809;-63
2022/03/07 02:27:29;;;;;;;;;53.00;46.00;;;;;1.91;55.86;102063.78;5029712;28;49610;-64
2022/03/07 02:29:54;;;;;;;;;59.25;47.50;;;;;2.28;56.22;102145.19;5029650;28;49792;-63
2022/03/07 02:32:21;;;;;;;;;61.00;46.25;;;;;2.28;56.49;102133.13;5029877;28;49800;-63
2022/03/07 02:34:47;;;;;;;;;61.25;45.50;;;;;2.28;56.97;102130.53;5029439;28;50104;-63
2022/03/07 02:37:13;;;;;;;;;57.00;44.67;;;;;2.25;56.16;102125.13;5028085;28;49975;-64
2022/03/07 02:39:38;;;;;;;;;54.25;45.00;;;;;2.27;56.22;102128.75;5029750;28;49733;-63
2022/03/07 02:42:03;;;;;;;;;64.33;49.33;;;;;2.21;56.85;102120.50;5038561;28;49683;-63
2022/03/07 02:44:29;;;;;;;;;65.67;47.67;;;;;2.22;56.59;102122.31;5034583;28;50119;-64
2022/03/07 02:46:54;;;;;;;;;61.00;45.67;;;;;2.16;56.72;102123.53;5035694;28;49708;-63
2022/03/07 02:49:20;;;;;;;;;58.00;48.25;;;;;2.18;56.82;102116.78;5039364;28;49793;-63
2022/03/07 02:51:45;;;;;;;;;54.50;47.00;;;;;2.13;56.81;102116.44;5035524;28;49741;-63
2022/03/07 02:54:11;;;;;;;;;54.00;47.00;;;;;2.08;56.54;102125.53;5033235;28;49965;-63
2022/03/07 02:56:37;;;;;;;;;66.33;52.33;;;;;2.04;56.74;102115.75;5035885;28;49831;-64
2022/03/07 02:59:03;;;;;;;;;38.00;38.00;;;;;2.00;57.84;102114.59;5033293;28;49698;-64
2022/03/07 03:01:28;;;;;;;;;57.00;45.50;;;;;1.90;57.29;102091.38;5032774;28;49920;-63
2022/03/07 03:03:54;;;;;;;;;46.50;41.75;;;;;2.02;57.65;102112.09;5037681;28;49632;-64
2022/03/07 03:06:19;;;;;;;;;54.33;47.00;;;;;2.07;57.16;102110.78;5035568;28;49693;-64
2022/03/07 03:08:44;;;;;;;;;56.75;46.75;;;;;1.95;56.97;102102.09;5035555;28;49823;-64
2022/03/07 03:11:11;;;;;;;;;53.00;44.50;;;;;2.00;57.60;102109.41;5036275;28;49670;-64
2022/03/07 03:13:36;;;;;;;;;56.00;47.67;;;;;1.82;57.44;102084.69;5035111;28;51483;-63
2022/03/07 03:16:02;;;;;;;;;53.33;46.67;;;;;1.94;57.25;102115.81;5035818;28;49208;-64
2022/03/07 03:18:27;;;;;;;;;60.25;48.50;;;;;1.93;57.74;102112.34;5032300;28;49697;-63
2022/03/07 03:20:53;;;;;;;;;56.25;44.75;;;;;1.92;57.75;102107.91;5017668;28;49651;-64
2022/03/07 03:23:19;;;;;;;;;50.75;43.75;;;;;1.93;57.37;102107.16;5034922;28;49793;-64
2022/03/07 03:25:45;;;;;;;;;47.00;42.00;;;;;1.91;57.43;102102.63;5037448;28;49745;-63
2022/03/07 03:28:13;;;;;;;;;52.75;45.25;;;;;1.91;57.95;102100.94;5035569;28;49808;-64
2022/03/07 03:30:38;;;;;;;;;56.75;47.25;;;;;1.87;57.57;102100.59;5032623;28;49887;-63
2022/03/07 03:33:05;;;;;;;;;58.25;47.00;;;;;1.84;57.75;102100.38;5032150;28;50636;-63
2022/03/07 03:35:30;;;;;;;;;30.50;30.00;;;;;1.85;57.64;102109.94;5032685;28;49768;-63
2022/03/07 03:37:56;;;;;;;;;49.75;42.75;;;;;1.67;57.68;102075.75;5037552;28;49917;-64
2022/03/07 03:40:21;;;;;;;;;53.50;45.75;;;;;1.88;57.83;102097.22;5036934;28;49779;-64
2022/03/07 03:42:47;;;;;;;;;55.00;44.00;;;;;1.59;57.79;102063.91;5032096;28;49833;-63
2022/03/07 03:45:13;;;;;;;;;36.50;35.75;;;;;1.79;57.73;102109.47;5032158;28;49777;-63
2022/03/07 03:47:41;;;;;;;;;49.75;44.75;;;;;1.79;57.74;102110.34;5037430;28;49646;-63
2022/03/07 03:50:08;;;;;;;;;32.00;29.00;;;;;1.75;58.10;102107.44;5033579;28;49784;-63
2022/03/07 03:52:34;;;;;;;;;60.00;47.00;;;;;1.68;57.99;102104.34;5034578;28;50806;-63
2022/03/07 03:55:02;;;;;;;;;53.00;45.75;;;;;1.57;57.95;102092.25;5043050;28;49342;-64
2022/03/07 03:57:27;;;;;;;;;53.00;46.67;;;;;1.48;58.17;102088.97;5038764;28;49901;-63
2022/03/07 03:59:53;;;;;;;;;49.50;44.75;;;;;1.70;57.80;102109.63;5034581;28;49735;-64
2022/03/07 04:02:18;;;;;;;;;52.00;43.00;;;;;1.67;57.50;102124.94;5031802;28;49653;-63
2022/03/07 04:04:43;;;;;;;;;38.25;33.75;;;;;1.50;58.16;102113.25;5031976;28;49809;-63
2022/03/07 04:07:09;;;;;;;;;57.67;47.33;;;;;1.55;58.35;102124.00;5031692;28;49703;-63
2022/03/07 04:09:34;;;;;;;;;58.50;44.00;;;;;1.33;58.83;102087.75;5037138;28;50030;-63
2022/03/07 04:12:00;;;;;;;;;46.00;43.25;;;;;1.60;58.54;102123.56;5038420;28;50573;-64
2022/03/07 04:14:25;;;;;;;;;53.00;42.67;;;;;1.54;58.65;102115.28;5039334;28;49634;-64
2022/03/07 04:16:51;;;;;;;;;48.33;43.67;;;;;1.52;58.77;102106.50;5038100;28;49970;-64
2022/03/07 04:19:16;;;;;;;;;56.00;43.75;;;;;1.51;58.63;102119.34;5031857;28;49638;-64
2022/03/07 04:21:43;;;;;;;;;51.50;45.00;;;;;1.33;58.43;102087.75;5031652;28;50723;-63
2022/03/07 04:24:10;;;;;;;;;55.75;46.75;;;;;1.53;58.46;102118.66;5034280;28;50367;-64
2022/03/07 04:26:36;;;;;;;;;63.00;49.00;;;;;1.41;58.77;102092.75;5042072;28;49926;-64
2022/03/07 04:29:07;;;;;;;;;42.33;35.00;;;;;1.43;58.70;102105.78;5043182;28;49716;-63
2022/03/07 04:31:35;;;;;;;;;55.25;43.75;;;;;1.46;58.78;102119.00;5036248;28;50009;-63
2022/03/07 04:34:00;;;;;;;;;45.75;42.50;;;;;1.31;58.68;102105.72;5031048;28;49736;-65
2022/03/07 04:36:26;;;;;;;;;61.33;51.33;;;;;1.26;58.43;102098.41;5035143;28;49841;-63
2022/03/07 04:38:51;;;;;;;;;53.33;44.00;;;;;1.40;58.54;102132.34;5039773;28;49804;-63
2022/03/07 04:41:16;;;;;;;;;50.75;44.50;;;;;1.39;58.99;102130.53;5036210;28;55275;-65
2022/03/07 04:43:41;;;;;;;;;64.33;48.33;;;;;1.38;58.74;102125.25;5033095;28;49932;-63
2022/03/07 04:46:08;;;;;;;;;46.50;36.25;;;;;1.42;59.03;102127.28;5036713;28;49738;-63
2022/03/07 04:48:34;;;;;;;;;47.00;44.00;;;;;1.41;58.75;102128.06;5031621;28;49795;-63
2022/03/07 04:50:59;;;;;;;;;53.00;46.67;;;;;1.33;58.78;102126.56;5031244;28;50626;-63
2022/03/07 04:53:24;;;;;;;;;56.33;46.67;;;;;1.29;58.81;102124.50;5031311;28;50035;-63
2022/03/07 04:55:50;;;;;;;;;38.25;38.25;;;;;1.29;59.23;102135.75;5031239;28;49824;-63
2022/03/07 04:58:15;;;;;;;;;63.00;49.00;;;;;1.28;59.21;102131.38;5031304;28;49765;-62
2022/03/07 05:00:40;;;;;;;;;52.00;47.00;;;;;1.31;59.06;102125.53;5039819;28;49891;-63
2022/03/07 05:03:06;;;;;;;;;55.00;47.00;;;;;1.27;58.98;102126.97;5031428;28;51598;-63
2022/03/07 05:05:31;;;;;;;;;53.00;42.00;;;;;1.21;59.34;102130.75;5035053;28;50174;-64
2022/03/07 05:07:56;;;;;;;;;63.67;48.33;;;;;1.18;59.41;102120.19;5038232;28;49946;-64
2022/03/07 05:10:22;;;;;;;;;46.67;43.33;;;;;1.18;58.84;102122.75;5037936;28;49761;-63
2022/03/07 05:12:48;;;;;;;;;52.67;45.33;;;;;0.74;58.96;102065.78;5039175;28;49622;-64
2022/03/07 05:15:14;;;;;;;;;52.67;47.33;;;;;1.17;59.00;102126.13;5037121;28;49759;-63
2022/03/07 05:17:43;;;;;;;;;61.33;49.00;;;;;1.05;59.15;102126.03;5034294;28;49925;-65
2022/03/07 05:20:11;;;;;;;;;56.67;46.33;;;;;1.10;59.21;102129.91;5034747;28;50309;-63
2022/03/07 05:22:38;;;;;;;;;61.67;50.00;;;;;1.03;59.88;102115.56;5036935;28;49949;-63
2022/03/07 05:25:05;;;;;;;;;54.67;48.33;;;;;1.04;59.16;102107.03;5033998;28;49856;-63
2022/03/07 05:27:31;;;;;;;;;58.67;47.00;;;;;1.04;59.78;102114.78;5039298;28;49722;-63
2022/03/07 05:29:56;;;;;;;;;62.50;49.00;;;;;1.06;59.60;102123.59;5037320;28;50615;-63
2022/03/07 05:32:22;;;;;;;;;65.00;48.00;;;;;1.06;59.57;102125.25;5037411;28;49764;-64
2022/03/07 05:34:47;;;;;;;;;57.00;46.33;;;;;0.90;59.50;102107.59;5032637;28;50098;-63
2022/03/07 05:37:12;;;;;;;;;58.67;51.67;;;;;0.92;59.67;102105.13;5030328;28;49658;-64
2022/03/07 05:39:38;;;;;;;;;34.00;28.00;;;;;0.99;59.63;102126.44;5036273;28;51044;-67
2022/03/07 05:42:03;;;;;;;;;58.33;49.33;;;;;0.72;59.83;102104.44;5034822;28;50425;-64
2022/03/07 05:44:29;;;;;;;;;62.67;49.00;;;;;0.82;60.17;102114.75;5038116;28;49808;-63
2022/03/07 05:46:54;;;;;;;;;49.33;44.33;;;;;0.92;60.07;102131.91;5039737;28;49895;-63
2022/03/07 05:49:19;;;;;;;;;57.67;51.67;;;;;0.45;60.03;102064.31;5030365;28;50630;-63
2022/03/07 05:51:46;;;;;;;;;53.67;47.33;;;;;0.67;60.12;102091.91;5030096;28;49618;-63
2022/03/07 05:54:11;;;;;;;;;53.00;45.00;;;;;0.89;60.29;102128.19;5030071;28;49855;-63
2022/03/07 05:56:37;;;;;;;;;60.00;45.33;;;;;0.76;60.15;102119.41;5030355;28;49724;-63
2022/03/07 05:59:02;;;;;;;;;54.67;46.67;;;;;0.85;60.55;102134.75;5030067;28;52991;-60
2022/03/07 06:01:27;;;;;;;;;65.67;47.00;;;;;0.82;60.80;102135.41;5030502;28;49953;-60
2022/03/07 06:03:53;;;;;;;;;58.33;49.00;;;;;0.80;60.28;102131.81;5028977;28;49702;-60
2022/03/07 06:06:18;;;;;;;;;60.00;46.33;;;;;0.80;60.80;102138.66;5030453;28;49684;-66
2022/03/07 06:08:44;;;;;;;;;62.67;50.67;;;;;0.77;60.72;102135.81;5029783;28;50626;-65
2022/03/07 06:11:09;;;;;;;;;58.33;50.67;;;;;0.72;60.89;102137.13;5030032;28;49670;-63
2022/03/07 06:13:34;;;;;;;;;46.00;41.00;;;;;0.62;61.21;102119.06;5030096;28;49774;-64
2022/03/07 06:16:00;;;;;;;;;43.00;40.00;;;;;0.69;61.48;102135.22;5030494;28;49980;-64
2022/03/07 06:18:25;;;;;;;;;63.67;49.00;;;;;0.71;61.00;102148.25;5033994;28;49719;-62
2022/03/07 06:20:50;;;;;;;;;61.67;47.67;;;;;0.71;61.41;102143.97;5032533;28;49897;-62
2022/03/07 06:23:16;;;;;;;;;54.00;46.67;;;;;0.71;61.35;102140.50;5032227;28;49587;-71
2022/03/07 06:25:41;;;;;;;;;49.00;43.00;;;;;0.54;60.99;102124.50;5034664;28;49725;-71
2022/03/07 06:28:07;;;;;;;;;51.33;45.00;;;;;0.67;61.17;102147.06;5029673;28;50768;-71
2022/03/07 06:30:32;;;;;;;;;59.33;44.67;;;;;0.68;60.91;102141.16;5029937;28;49643;-71
2022/03/07 06:32:57;;;;;;;;;56.33;44.33;;;;;0.61;61.11;102146.59;5029752;28;49849;-70
2022/03/07 06:35:23;;;;;;;;;56.00;49.33;;;;;0.67;61.07;102152.25;5033841;28;49797;-71
2022/03/07 06:37:51;;;;;;;;;64.67;52.67;;;;;0.68;60.75;102151.50;5035563;28;50500;-69
2022/03/07 06:40:18;;;;;;;;;56.33;47.00;;;;;0.62;61.24;102137.16;5034387;28;50521;-72
2022/03/07 06:42:44;;;;;;;;;46.00;43.33;;;;;0.61;61.08;102145.69;5031018;28;49737;-64
2022/03/07 06:45:13;;;;;;;;;64.33;51.67;;;;;0.64;60.90;102153.69;5032723;28;49750;-64
2022/03/07 06:47:42;;;;;;;;;59.00;49.67;;;;;0.63;61.14;102163.13;5029600;28;50388;-61
2022/03/07 06:50:08;;;;;;;;;47.67;43.67;;;;;0.63;61.19;102159.63;5029651;28;49694;-60
2022/03/07 06:52:33;;;;;;;;;60.33;49.00;;;;;0.66;60.89;102154.72;5031385;28;49806;-60
2022/03/07 06:54:59;;;;;;;;;54.00;45.67;;;;;0.65;60.73;102164.16;5029905;28;49952;-60
2022/03/07 06:57:24;;;;;;;;;68.67;52.00;;;;;0.48;61.26;102134.34;5029450;28;52047;-60
2022/03/07 06:59:50;;;;;;;;;65.00;54.00;;;;;0.64;60.73;102153.69;5032409;28;49746;-61
2022/03/07 07:02:16;;;;;;;;;56.67;45.33;;;;;0.67;61.12;102153.94;5029464;28;49550;-61
2022/03/07 07:04:41;;;;;;;;;63.00;52.33;;;;;0.58;60.77;102128.25;5035873;28;49967;-60
2022/03/07 07:07:06;;;;;;;;;58.00;48.33;;;;;0.71;60.90;102156.91;5034128;28;49777;-62
2022/03/07 07:09:32;;;;;;;;;44.00;36.33;;;;;0.51;60.57;102121.66;5038131;28;49747;-60
2022/03/07 07:11:57;;;;;;;;;70.00;55.67;;;;;0.75;60.85;102150.28;5035396;28;49841;-60
2022/03/07 07:14:22;;;;;;;;;66.33;51.67;;;;;0.79;60.48;102155.84;5036928;28;50104;-60
2022/03/07 07:16:48;;;;;;;;;62.00;50.33;;;;;0.74;60.31;102153.66;5021294;28;52576;-67
2022/03/07 07:19:14;;;;;;;;;52.67;47.67;;;;;0.65;60.66;102151.22;5039600;28;49737;-66
2022/03/07 07:21:40;;;;;;;;;60.33;48.33;;;;;0.76;60.44;102152.09;5044657;28;49706;-66
2022/03/07 07:24:06;;;;;;;;;55.67;46.33;;;;;0.59;60.21;102113.66;5048778;28;49534;-69
2022/03/07 07:26:32;;;;;;;;;48.00;43.67;;;;;0.40;60.00;102091.47;5044039;28;50717;-70
2022/03/07 07:28:57;;;;;;;;;66.33;53.33;;;;;0.15;60.27;102042.03;5017735;28;49826;-71
2022/03/07 07:31:23;;;;;;;;;62.00;50.33;;;;;0.16;60.68;102061.91;5033508;28;49721;-70
2022/03/07 07:33:49;;;;;;;;;65.67;51.33;;;;;0.54;59.80;102129.66;5015419;28;49779;-69
2022/03/07 07:36:14;;;;;;;;;46.67;42.00;;;;;-0.61;59.74;101886.00;5034495;28;50767;-70
2022/03/07 07:38:40;;;;;;;;;62.33;50.67;;;;;-0.86;60.07;101844.41;5040703;28;49595;-69
2022/03/07 07:41:05;;;;;;;;;43.33;39.67;;;;;-1.03;59.89;101824.94;5033761;28;49851;-69
2022/03/07 07:43:31;;;;;;;;;58.00;42.00;;;;;1.05;59.63;102163.13;5032360;28;49988;-70
2022/03/07 07:45:56;;;;;;;;;44.00;39.67;;;;;1.08;59.69;102171.16;5036394;28;50441;-68
2022/03/07 07:48:21;;;;;;;;;70.00;55.00;;;;;1.12;59.16;102170.63;5036740;28;49864;-68
2022/03/07 07:50:46;;;;;;;;;57.33;48.33;;;;;1.17;59.11;102165.84;5026005;28;49918;-68
2022/03/07 07:53:12;;;;;;;;;56.67;48.00;;;;;0.67;58.83;102050.53;5032115;28;49615;-69
2022/03/07 07:55:37;;;;;;;;;53.33;46.67;;;;;1.29;58.34;102151.28;5032028;28;49626;-69
2022/03/07 07:58:02;;;;;;;;;53.33;44.33;;;;;1.31;58.36;102147.13;5035030;28;49677;-69
2022/03/07 08:00:28;;;;;;;;;65.67;50.33;;;;;1.38;58.20;102151.13;5040035;28;49690;-74
2022/03/07 08:02:53;;;;;;;;;63.00;47.33;;;;;1.24;58.11;102116.38;5013463;28;49734;-74
2022/03/07 08:05:19;;;;;;;;;53.00;47.00;;;;;1.47;57.40;102150.94;5031976;28;50289;-73
2022/03/07 08:07:45;;;;;;;;;57.00;48.00;;;;;1.24;57.26;102110.28;5031665;28;50125;-74
2022/03/07 08:10:12;;;;;;;;;54.67;47.33;;;;;1.53;56.98;102154.91;5013560;28;49904;-73
2022/03/07 08:12:37;;;;;;;;;50.33;45.33;;;;;1.47;57.07;102136.31;5032174;28;49819;-73
2022/03/07 08:15:05;;;;;;;;;56.67;46.00;;;;;1.58;56.74;102147.53;5031450;28;50646;-74
2022/03/07 08:17:31;;;;;;;;;47.00;41.50;;;;;1.60;56.42;102139.09;5031564;28;49811;-73
2022/03/07 08:19:57;;;;;;;;;55.25;45.75;;;;;1.54;56.72;102116.97;5031794;28;49821;-73
2022/03/07 08:22:22;;;;;;;;;47.50;44.25;;;;;1.76;55.66;102148.06;5031615;28;49663;-73
2022/03/07 08:24:47;;;;;;;;;62.00;48.50;;;;;1.71;56.17;102145.09;5031453;28;50302;-74
2022/03/07 08:27:13;;;;;;;;;56.67;44.67;;;;;1.60;55.37;102115.78;5010438;28;50000;-73
2022/03/07 08:29:38;;;;;;;;;59.67;50.67;;;;;1.83;55.16;102138.28;5011854;28;50022;-73
2022/03/07 08:32:03;;;;;;;;;53.50;47.50;;;;;1.94;55.36;102149.50;5011813;28;49679;-74
2022/03/07 08:34:29;;;;;;;;;51.33;44.67;;;;;1.84;54.72;102115.91;5011236;28;50450;-74
2022/03/07 08:36:54;;;;;;;;;53.67;43.00;;;;;1.81;54.34;102118.22;5011139;28;49832;-74
2022/03/07 08:39:19;;;;;;;;;63.00;46.00;;;;;1.77;54.57;102116.22;5011771;28;49796;-73
2022/03/07 08:41:45;;;;;;;;;33.33;33.00;;;;;1.95;54.33;102131.47;5011829;28;49698;-74
2022/03/07 08:44:10;;;;;;;;;43.00;34.00;;;;;1.78;54.71;102090.44;5011216;28;49790;-74
2022/03/07 08:46:36;;;;;;;;;59.00;47.00;;;;;0.98;54.29;101920.38;5011544;28;49855;-74
2022/03/07 08:49:01;;;;;;;;;56.00;48.00;;;;;2.14;54.65;102119.94;5010180;28;49896;-74
2022/03/07 08:51:26;;;;;;;;;16.25;16.25;;;;;2.15;53.31;102068.25;5011090;28;50086;-73
2022/03/07 08:53:52;;;;;;;;;59.67;47.00;;;;;2.40;53.31;102098.56;5011017;28;50022;-74
2022/03/07 08:56:18;;;;;;;;;57.67;46.33;;;;;2.58;52.93;102123.25;5011151;28;49788;-74
2022/03/07 08:58:43;;;;;;;;;65.33;51.67;;;;;2.63;53.24;102136.59;5011260;28;49795;-74
2022/03/07 09:01:09;;;;;;;;;52.00;47.00;;;;;2.26;52.00;102059.56;5011559;28;49887;-73
2022/03/07 09:03:35;;;;;;;;;65.33;51.33;;;;;2.72;51.58;102127.81;5011174;28;50529;-73
2022/03/07 09:06:00;;;;;;;;;51.75;46.00;;;;;2.81;52.34;102109.41;5011061;28;49761;-73
2022/03/07 09:08:25;;;;;;;;;53.50;45.25;;;;;2.56;51.39;102083.38;5010831;28;49824;-74
2022/03/07 09:10:51;;;;;;;;;52.25;45.25;;;;;2.59;51.72;102079.31;5011210;28;49798;-74
2022/03/07 09:13:16;;;;;;;;;54.25;43.75;;;;;2.55;51.21;102060.84;5010797;28;50549;-74
2022/03/07 09:15:45;;;;;;;;;64.67;51.00;;;;;2.97;51.17;102124.38;5010797;28;49615;-73
2022/03/07 09:18:12;;;;;;;;;57.25;44.25;;;;;3.03;51.05;102106.69;5011189;28;49722;-74
2022/03/07 09:20:38;;;;;;;;;60.25;50.00;;;;;3.19;50.89;102116.50;5011212;28;49897;-73
2022/03/07 09:23:03;;;;;;;;;56.25;46.00;;;;;3.23;50.17;102128.88;5009363;28;50275;-73
2022/03/07 09:25:29;;;;;;;;;52.50;45.00;;;;;3.22;50.30;102098.53;5013471;28;49566;-74
2022/03/07 09:27:54;;;;;;;;;54.25;44.75;;;;;3.30;49.59;102110.38;5030567;28;49818;-73
2022/03/07 09:30:19;;;;;;;;;55.75;47.25;;;;;3.35;50.09;102120.28;5030876;28;49623;-74
2022/03/07 09:32:45;;;;;;;;;56.25;44.75;;;;;2.89;48.98;102043.41;5030324;28;49829;-74
2022/03/07 09:35:10;;;;;;;;;53.25;43.75;;;;;3.25;49.74;102102.25;5024041;28;49776;-74
2022/03/07 09:37:36;;;;;;;;;60.00;49.50;;;;;3.47;49.20;102111.53;5030680;28;49931;-74
2022/03/07 09:40:02;;;;;;;;;46.50;40.75;;;;;3.43;48.95;102128.63;5030518;28;49833;-73
2022/03/07 09:42:28;;;;;;;;;46.00;40.25;;;;;3.51;48.61;102127.47;5030720;28;49930;-74
2022/03/07 09:44:54;;;;;;;;;49.25;44.25;;;;;3.49;48.50;102108.28;5030125;28;49559;-74
2022/03/07 09:47:21;;;;;;;;;47.50;41.75;;;;;3.50;48.26;102114.38;5030102;28;49794;-73
2022/03/07 09:50:10;;;;;;;;;52.25;43.25;;;;;3.52;49.39;102115.38;5030647;28;50004;-74
2022/03/07 09:52:35;;;;;;;;;53.00;45.00;;;;;3.55;49.31;102108.69;5029928;28;49833;-73
2022/03/07 09:55:01;;;;;;;;;56.25;46.50;;;;;3.43;48.21;102075.00;5029972;28;49729;-74
2022/03/07 09:57:26;;;;;;;;;56.25;48.50;;;;;3.57;48.10;102081.19;5030484;28;49739;-73
2022/03/07 09:59:51;;;;;;;;;57.25;44.00;;;;;3.81;47.61;102101.84;5030744;28;49769;-73
2022/03/07 10:02:24;;;;;;;;;53.75;45.50;;;;;3.89;48.03;102101.56;5028856;28;50555;-73
2022/03/07 10:04:49;;;;;;;;;53.00;41.50;;;;;4.01;48.09;102094.63;5024003;28;49803;-74
2022/03/07 10:07:15;;;;;;;;;43.50;36.25;;;;;4.05;47.10;102089.63;5030568;28;49765;-74
2022/03/07 10:09:41;;;;;;;;;32.50;26.25;;;;;3.92;47.61;102099.19;5030084;28;49761;-74
2022/03/07 10:12:07;;;;;;;;;53.00;42.25;;;;;3.87;47.22;102077.19;5030008;28;50569;-74
2022/03/07 10:14:44;;;;;;;;;49.75;43.25;;;;;4.01;47.02;102076.41;5030264;28;49699;-73
2022/03/07 10:17:24;;;;;;;;;62.75;44.75;;;;;3.94;46.43;102050.81;5023876;28;49738;-74
2022/03/07 10:19:51;;;;;;;;;49.50;44.75;;;;;4.14;46.87;102059.94;5030537;28;49914;-73
2022/03/07 10:22:21;;;;;;;;;48.75;35.75;;;;;4.28;46.77;102073.88;5011634;28;52367;-74
2022/03/07 10:24:56;;;;;;;;;60.50;46.25;;;;;4.26;46.92;102075.50;5029889;28;49932;-74
2022/03/07 10:27:30;;;;;;;;;49.25;43.50;;;;;4.31;46.72;102076.69;5029813;28;49800;-73
2022/03/07 10:29:56;;;;;;;;;43.25;38.25;;;;;4.11;45.61;102051.97;5030004;28;49761;-74
2022/03/07 10:32:21;;;;;;;;;49.25;44.00;;;;;4.00;46.21;102008.75;5030088;28;50954;-73
2022/03/07 10:34:47;;;;;;;;;56.00;41.00;;;;;4.44;46.16;102068.91;5032565;28;49652;-73
2022/03/07 10:37:13;;;;;;;;;51.50;44.75;;;;;4.42;45.18;102086.09;5033451;28;49722;-74
2022/03/07 10:39:46;;;;;;;;;55.50;44.25;;;;;4.31;45.27;102054.19;5033716;28;49962;-73
2022/03/07 10:42:16;;;;;;;;;50.00;43.50;;;;;4.42;45.34;102062.69;5033579;28;50726;-74
2022/03/07 10:44:42;;;;;;;;;43.25;41.50;;;;;4.27;45.48;102033.09;5033454;28;49869;-74
2022/03/07 10:47:13;;;;;;;;;54.25;42.25;;;;;4.52;44.87;102053.78;5033252;28;49831;-73
2022/03/07 10:49:56;;;;;;;;;41.75;40.50;;;;;4.60;45.45;102058.69;5033346;28;49698;-74
2022/03/07 10:52:23;;;;;;;;;44.00;41.00;;;;;4.65;45.13;102069.44;5032991;28;50302;-73
2022/03/07 10:54:49;;;;;;;;;55.50;44.25;;;;;4.80;44.35;102036.56;5032922;28;49639;-73
2022/03/07 10:57:16;;;;;;;;;57.00;45.25;;;;;4.82;44.19;102044.47;5033318;28;49875;-73
2022/03/07 10:59:42;;;;;;;;;21.00;14.75;;;;;4.92;44.13;102054.66;5033188;28;49703;-73
2022/03/07 11:02:14;;;;;;;;;37.75;33.00;;;;;4.61;44.55;101986.78;5032610;28;50082;-73
2022/03/07 11:04:40;;;;;;;;;55.75;45.00;;;;;4.73;43.77;102020.47;5032950;28;49789;-74
2022/03/07 11:07:08;;;;;;;;;19.25;16.25;;;;;4.70;42.25;102012.47;5032951;28;49663;-74
2022/03/07 11:09:33;;;;;;;;;48.50;37.50;;;;;4.88;42.19;102030.16;5032924;28;49679;-74
2022/03/07 11:11:59;;;;;;;;;58.25;47.50;;;;;4.96;41.99;102016.75;5032569;28;49825;-74